createdAt,value
2022-12-05T00:01:07.130Z,4.7
2022-12-05T00:03:33.802Z,4.7
2022-12-05T00:06:00.482Z,4.7
2022-12-05T00:08:27.180Z,4.7
2022-12-05T00:10:53.866Z,4.7
2022-12-05T00:13:20.555Z,4.7
2022-12-05T00:15:45.769Z,4.7
2022-12-05T00:18:12.458Z,4.7
2022-12-05T00:20:39.142Z,4.7
2022-12-05T00:23:05.823Z,4.7
2022-12-05T00:27:59.191Z,4.7
2022-12-05T00:30:25.885Z,4.7
2022-12-05T00:32:52.556Z,4.7
2022-12-05T00:35:19.245Z,4.7
2022-12-05T00:37:45.936Z,4.7
2022-12-05T00:40:12.635Z,4.7
2022-12-05T00:42:39.283Z,4.6
2022-12-05T00:45:05.998Z,4.6
2022-12-05T00:47:31.194Z,4.6
2022-12-05T00:49:57.894Z,4.6
2022-12-05T00:52:24.575Z,4.6
2022-12-05T00:54:51.255Z,4.6
2022-12-05T00:57:17.954Z,4.6
2022-12-05T00:59:44.622Z,4.6
2022-12-05T01:02:11.304Z,4.6
2022-12-05T01:04:37.994Z,4.6
2022-12-05T01:07:04.672Z,4.7
2022-12-05T01:09:31.368Z,4.6
2022-12-05T01:11:58.049Z,4.7
2022-12-05T01:14:24.739Z,4.7
2022-12-05T01:16:51.420Z,4.7
2022-12-05T01:19:16.729Z,4.7
2022-12-05T01:21:43.315Z,4.6
2022-12-05T01:24:09.994Z,4.7
2022-12-05T01:26:36.694Z,4.7
2022-12-05T01:29:03.398Z,4.7
2022-12-05T01:31:30.063Z,4.6
2022-12-05T01:33:56.744Z,4.6
2022-12-05T01:36:23.432Z,4.6
2022-12-05T01:38:50.120Z,4.6
2022-12-05T01:41:16.808Z,4.6
2022-12-05T01:43:43.491Z,4.6
2022-12-05T01:46:10.183Z,4.6
2022-12-05T01:48:36.856Z,4.6
2022-12-05T01:51:02.081Z,4.6
2022-12-05T01:53:28.767Z,4.6
2022-12-05T01:55:55.449Z,4.6
2022-12-05T01:58:22.137Z,4.6
2022-12-05T02:00:48.822Z,4.6
2022-12-05T02:03:15.510Z,4.6
2022-12-05T02:05:42.199Z,4.6
2022-12-05T02:08:08.896Z,4.6
2022-12-05T02:10:35.568Z,4.6
2022-12-05T02:13:02.264Z,4.6
2022-12-05T02:15:28.943Z,4.6
2022-12-05T02:17:55.627Z,4.6
2022-12-05T02:20:22.314Z,4.6
2022-12-05T02:22:48.991Z,4.6
2022-12-05T02:25:15.674Z,4.6
2022-12-05T02:27:40.904Z,4.6
2022-12-05T02:30:07.587Z,4.6
2022-12-05T02:32:34.276Z,4.6
2022-12-05T02:35:00.978Z,4.6
2022-12-05T02:37:27.632Z,4.6
2022-12-05T02:39:54.319Z,4.6
2022-12-05T02:42:21.014Z,4.6
2022-12-05T02:44:47.689Z,4.6
2022-12-05T02:47:14.381Z,4.6
2022-12-05T02:49:41.073Z,4.6
2022-12-05T02:52:07.748Z,4.5
2022-12-05T02:54:34.432Z,4.5
2022-12-05T02:57:01.120Z,4.5
2022-12-05T02:59:26.347Z,4.5
2022-12-05T03:01:53.030Z,4.5
2022-12-05T03:04:19.721Z,4.5
2022-12-05T03:06:46.403Z,4.5
2022-12-05T03:09:13.081Z,4.5
2022-12-05T03:11:39.766Z,4.5
2022-12-05T03:14:06.452Z,4.5
2022-12-05T03:16:33.217Z,4.5
2022-12-05T03:18:59.835Z,4.5
2022-12-05T03:21:26.515Z,4.5
2022-12-05T03:23:53.197Z,4.5
2022-12-05T03:26:19.881Z,4.5
2022-12-05T03:28:46.575Z,4.5
2022-12-05T03:31:13.253Z,4.4
2022-12-05T03:33:38.465Z,4.4
2022-12-05T03:36:05.157Z,4.4
2022-12-05T03:38:31.838Z,4.4
2022-12-05T03:40:58.522Z,4.4
2022-12-05T03:43:25.213Z,4.4
2022-12-05T03:45:51.896Z,4.4
2022-12-05T03:48:18.577Z,4.4
2022-12-05T03:50:45.258Z,4.4
2022-12-05T03:53:11.948Z,4.4
2022-12-05T03:55:38.622Z,4.4
2022-12-05T03:58:05.314Z,4.4
2022-12-05T04:00:32.010Z,4.4
2022-12-05T04:02:58.688Z,4.4
2022-12-05T04:05:25.382Z,4.4
2022-12-05T04:07:52.096Z,4.4
2022-12-05T04:10:17.279Z,4.4
2022-12-05T04:12:43.962Z,4.4
2022-12-05T04:15:10.646Z,4.4
2022-12-05T04:17:37.335Z,4.4
2022-12-05T04:20:04.015Z,4.4
2022-12-05T04:22:30.695Z,4.4
2022-12-05T04:24:57.389Z,4.3
2022-12-05T04:27:24.072Z,4.3
2022-12-05T04:29:50.751Z,4.3
2022-12-05T04:32:17.443Z,4.3
2022-12-05T04:34:44.128Z,4.3
2022-12-05T04:37:10.809Z,4.3
2022-12-05T04:39:37.489Z,4.3
2022-12-05T04:42:02.723Z,4.3
2022-12-05T04:44:29.408Z,4.3
2022-12-05T04:46:56.176Z,4.3
2022-12-05T04:49:22.767Z,4.3
2022-12-05T04:51:49.507Z,4.3
2022-12-05T04:54:16.132Z,4.3
2022-12-05T04:56:42.824Z,4.3
2022-12-05T04:59:09.502Z,4.4
2022-12-05T05:01:36.190Z,4.4
2022-12-05T05:04:02.870Z,4.4
2022-12-05T05:06:29.560Z,4.4
2022-12-05T05:08:56.250Z,4.4
2022-12-05T05:11:22.924Z,4.4
2022-12-05T05:13:49.620Z,4.4
2022-12-05T05:16:14.823Z,4.4
2022-12-05T05:18:41.521Z,4.4
2022-12-05T05:21:08.201Z,4.4
2022-12-05T05:23:34.886Z,4.4
2022-12-05T05:26:01.576Z,4.4
2022-12-05T05:28:28.260Z,4.4
2022-12-05T05:30:54.948Z,4.4
2022-12-05T05:33:21.634Z,4.4
2022-12-05T05:35:48.314Z,4.4
2022-12-05T05:38:14.998Z,4.4
2022-12-05T05:40:41.681Z,4.4
2022-12-05T05:43:08.378Z,4.4
2022-12-05T05:45:35.059Z,4.4
2022-12-05T05:48:00.282Z,4.4
2022-12-05T05:50:26.973Z,4.5
2022-12-05T05:52:53.640Z,4.5
2022-12-05T05:55:20.334Z,4.5
2022-12-05T05:57:47.064Z,4.5
2022-12-05T06:00:13.766Z,4.5
2022-12-05T06:02:40.392Z,4.5
2022-12-05T06:05:07.068Z,4.5
2022-12-05T06:07:33.763Z,4.5
2022-12-05T06:10:00.436Z,4.5
2022-12-05T06:12:27.128Z,4.5
2022-12-05T06:14:53.858Z,4.5
2022-12-05T06:17:20.492Z,4.5
2022-12-05T06:19:47.165Z,4.5
2022-12-05T06:22:13.865Z,4.5
2022-12-05T06:24:40.541Z,4.5
2022-12-05T06:27:07.255Z,4.5
2022-12-05T06:29:32.447Z,4.5
2022-12-05T06:31:59.149Z,4.5
2022-12-05T06:34:25.827Z,4.5
2022-12-05T06:36:52.519Z,4.5
2022-12-05T06:39:19.196Z,4.5
2022-12-05T06:41:45.877Z,4.5
2022-12-05T06:44:12.562Z,4.5
2022-12-05T06:46:39.247Z,4.5
2022-12-05T06:49:05.927Z,4.5
2022-12-05T06:51:32.622Z,4.6
2022-12-05T06:53:59.296Z,4.5
2022-12-05T06:56:25.993Z,4.6
2022-12-05T06:58:52.677Z,4.6
2022-12-05T07:01:19.355Z,4.6
2022-12-05T07:03:46.069Z,4.6
2022-12-05T07:06:11.284Z,4.6
2022-12-05T07:08:37.966Z,4.6
2022-12-05T07:11:04.652Z,4.6
2022-12-05T07:13:31.336Z,4.6
2022-12-05T07:15:58.023Z,4.6
2022-12-05T07:18:24.703Z,4.6
2022-12-05T07:20:51.406Z,4.6
2022-12-05T07:23:18.201Z,4.6
2022-12-05T07:25:44.760Z,4.6
2022-12-05T07:28:11.465Z,4.6
2022-12-05T07:30:38.202Z,4.6
2022-12-05T07:33:04.812Z,4.6
2022-12-05T07:35:31.532Z,4.6
2022-12-05T07:37:56.704Z,4.6
2022-12-05T07:40:23.420Z,4.6
2022-12-05T07:42:50.080Z,4.6
2022-12-05T07:45:16.797Z,4.6
2022-12-05T07:47:43.473Z,4.6
2022-12-05T07:50:10.173Z,4.7
2022-12-05T07:52:36.871Z,4.7
2022-12-05T07:55:03.521Z,4.7
2022-12-05T07:57:30.213Z,4.7
2022-12-05T07:59:56.940Z,4.7
2022-12-05T08:02:23.574Z,4.7
2022-12-05T08:04:50.257Z,4.7
2022-12-05T08:07:16.953Z,4.7
2022-12-05T08:09:42.175Z,4.7
2022-12-05T08:12:08.860Z,4.7
2022-12-05T08:14:35.529Z,4.7
2022-12-05T08:17:02.215Z,4.8
2022-12-05T08:19:28.925Z,4.8
2022-12-05T08:21:55.596Z,4.8
2022-12-05T08:24:22.302Z,4.8
2022-12-05T08:26:48.945Z,4.8
2022-12-05T08:29:15.666Z,4.8
2022-12-05T08:31:42.330Z,4.8
2022-12-05T08:34:09.030Z,4.9
2022-12-05T08:36:35.772Z,4.9
2022-12-05T08:39:02.400Z,4.9
2022-12-05T08:41:27.612Z,4.9
2022-12-05T08:43:54.301Z,4.9
2022-12-05T08:46:20.986Z,4.9
2022-12-05T08:48:47.684Z,5
2022-12-05T08:51:14.353Z,5
2022-12-05T08:53:41.043Z,5
2022-12-05T08:56:07.721Z,5.1
2022-12-05T08:58:34.417Z,5.1
2022-12-05T09:01:01.113Z,5.1
2022-12-05T09:03:27.781Z,5.1
2022-12-05T09:05:54.461Z,5.2
2022-12-05T09:08:21.165Z,5.2
2022-12-05T09:10:47.831Z,5.2
2022-12-05T09:13:13.083Z,5.3
2022-12-05T09:15:39.729Z,5.3
2022-12-05T09:18:06.430Z,5.3
2022-12-05T09:20:33.097Z,5.3
2022-12-05T09:22:59.794Z,5.4
2022-12-05T09:25:26.472Z,5.4
2022-12-05T09:27:53.166Z,5.4
2022-12-05T09:30:19.840Z,5.4
2022-12-05T09:32:46.542Z,5.4
2022-12-05T09:35:13.218Z,5.4
2022-12-05T09:37:39.913Z,5.5
2022-12-05T09:40:06.579Z,5.5
2022-12-05T09:42:33.266Z,5.5
2022-12-05T09:44:59.956Z,5.5
2022-12-05T09:47:25.311Z,5.6
2022-12-05T09:49:51.860Z,5.6
2022-12-05T09:52:18.564Z,5.6
2022-12-05T09:54:45.219Z,5.6
2022-12-05T09:57:11.912Z,5.6
2022-12-05T09:59:38.628Z,5.7
2022-12-05T10:02:05.288Z,5.7
2022-12-05T10:04:31.966Z,5.7
2022-12-05T10:06:58.678Z,5.7
2022-12-05T10:09:25.338Z,5.7
2022-12-05T10:11:52.061Z,5.7
2022-12-05T10:14:18.722Z,5.7
2022-12-05T10:16:45.415Z,5.8
2022-12-05T10:19:10.637Z,5.8
2022-12-05T10:21:37.333Z,5.8
2022-12-05T10:26:30.677Z,5.8
2022-12-05T10:28:57.371Z,5.8
2022-12-05T10:31:24.058Z,5.8
2022-12-05T10:33:50.733Z,5.9
2022-12-05T10:36:17.417Z,5.9
2022-12-05T10:38:44.112Z,5.9
2022-12-05T10:41:10.986Z,5.9
2022-12-05T10:43:37.476Z,5.9
2022-12-05T10:46:04.166Z,5.9
2022-12-05T10:48:30.846Z,5.9
2022-12-05T10:50:56.070Z,5.9
2022-12-05T10:53:22.748Z,5.9
2022-12-05T10:55:49.450Z,6
2022-12-05T10:58:16.114Z,6
2022-12-05T11:00:42.881Z,6
2022-12-05T11:03:09.526Z,6
2022-12-05T11:05:36.187Z,6
2022-12-05T11:08:02.868Z,6
2022-12-05T11:10:29.540Z,6.1
2022-12-05T11:12:56.250Z,6.1
2022-12-05T11:15:22.922Z,6.1
2022-12-05T11:17:49.605Z,6.1
2022-12-05T11:20:16.291Z,6.1
2022-12-05T11:22:41.507Z,6.1
2022-12-05T11:25:08.190Z,6.2
2022-12-05T11:27:34.875Z,6.2
2022-12-05T11:30:01.563Z,6.2
2022-12-05T11:32:28.982Z,6.3
2022-12-05T11:34:54.936Z,6.3
2022-12-05T11:37:21.631Z,6.3
2022-12-05T11:39:48.312Z,6.4
2022-12-05T11:42:14.983Z,6.4
2022-12-05T11:44:41.681Z,6.4
2022-12-05T11:47:08.364Z,6.5
2022-12-05T11:49:35.062Z,6.5
2022-12-05T11:52:01.734Z,6.6
2022-12-05T11:54:28.403Z,6.6
2022-12-05T11:56:55.108Z,6.6
2022-12-05T11:59:21.785Z,6.7
2022-12-05T12:01:48.467Z,6.7
2022-12-05T12:04:15.162Z,6.7
2022-12-05T12:06:41.833Z,6.8
2022-12-05T12:09:08.538Z,6.8
2022-12-05T12:11:33.745Z,6.8
2022-12-05T12:14:00.445Z,6.9
2022-12-05T12:16:27.115Z,6.9
2022-12-05T12:18:53.803Z,6.9
2022-12-05T12:21:20.480Z,7
2022-12-05T12:23:47.182Z,7
2022-12-05T12:26:13.857Z,7
2022-12-05T12:28:40.548Z,7
2022-12-05T12:31:07.230Z,7
2022-12-05T12:33:33.920Z,7.1
2022-12-05T12:36:00.593Z,7.1
2022-12-05T12:38:27.280Z,7.1
2022-12-05T12:40:53.972Z,7.1
2022-12-05T12:43:20.757Z,7.1
2022-12-05T12:45:47.336Z,7.2
2022-12-05T12:48:14.034Z,7.2
2022-12-05T12:50:39.239Z,7.2
2022-12-05T12:53:05.955Z,7.2
2022-12-05T12:55:32.606Z,7.3
2022-12-05T12:57:59.300Z,7.3
2022-12-05T13:00:25.976Z,7.3
2022-12-05T13:02:52.688Z,7.3
2022-12-05T13:05:19.371Z,7.3
2022-12-05T13:07:46.055Z,7.3
2022-12-05T13:10:12.718Z,7.3
2022-12-05T13:12:39.420Z,7.4
2022-12-05T13:15:06.104Z,7.4
2022-12-05T13:17:32.791Z,7.4
2022-12-05T13:19:59.459Z,7.4
2022-12-05T13:22:26.153Z,7.4
2022-12-05T13:24:52.824Z,7.4
2022-12-05T13:29:46.190Z,7.3
2022-12-05T13:32:12.901Z,7.3
2022-12-05T13:34:39.588Z,7.3
2022-12-05T13:37:06.281Z,7.4
2022-12-05T13:39:32.946Z,7.4
2022-12-05T13:41:59.641Z,7.4
2022-12-05T13:44:26.313Z,7.4
2022-12-05T13:46:53.027Z,7.4
2022-12-05T13:49:18.253Z,7.4
2022-12-05T13:51:44.927Z,7.4
2022-12-05T13:54:11.591Z,7.4
2022-12-05T13:56:38.283Z,7.4
2022-12-05T13:59:04.954Z,7.4
2022-12-05T14:01:31.673Z,7.4
2022-12-05T14:03:58.323Z,7.4
2022-12-05T14:06:25.011Z,7.4
2022-12-05T14:08:51.702Z,7.4
2022-12-05T14:13:45.124Z,7.4
2022-12-05T14:16:11.768Z,7.4
2022-12-05T14:18:38.445Z,7.4
2022-12-05T14:21:05.127Z,7.4
2022-12-05T14:23:31.836Z,7.4
2022-12-05T14:25:58.544Z,7.4
2022-12-05T14:28:23.717Z,7.4
2022-12-05T14:30:50.403Z,7.4
2022-12-05T14:33:17.088Z,7.4
2022-12-05T14:35:43.761Z,7.4
2022-12-05T14:38:10.449Z,7.4
2022-12-05T14:40:37.159Z,7.4
2022-12-05T14:43:03.842Z,7.4
2022-12-05T14:45:30.521Z,7.4
2022-12-05T14:47:57.216Z,7.4
2022-12-05T14:50:23.889Z,7.4
2022-12-05T14:52:50.567Z,7.4
2022-12-05T14:55:17.247Z,7.4
2022-12-05T14:57:43.943Z,7.4
2022-12-05T15:00:10.652Z,7.4
2022-12-05T15:02:35.841Z,7.4
2022-12-05T15:05:02.540Z,7.4
2022-12-05T15:07:29.231Z,7.3
2022-12-05T15:09:55.894Z,7.3
2022-12-05T15:12:22.597Z,7.3
2022-12-05T15:14:49.261Z,7.3
2022-12-05T15:17:15.959Z,7.3
2022-12-05T15:19:42.631Z,7.3
2022-12-05T15:22:09.340Z,7.3
2022-12-05T15:24:36.039Z,7.3
2022-12-05T15:27:02.710Z,7.3
2022-12-05T15:29:29.387Z,7.3
2022-12-05T15:31:54.624Z,7.3
2022-12-05T15:34:21.309Z,7.3
2022-12-05T15:36:47.993Z,7.3
2022-12-05T15:39:14.685Z,7.3
2022-12-05T15:41:41.365Z,7.2
2022-12-05T15:44:08.055Z,7.2
2022-12-05T15:46:34.737Z,7.2
2022-12-05T15:49:01.431Z,7.2
2022-12-05T15:51:28.109Z,7.2
2022-12-05T15:53:54.802Z,7.1
2022-12-05T15:56:21.522Z,7.1
2022-12-05T15:58:48.174Z,7.1
2022-12-05T16:01:14.910Z,7.1
2022-12-05T16:03:40.078Z,7.1
2022-12-05T16:06:06.797Z,7.1
2022-12-05T16:08:33.495Z,7
2022-12-05T16:11:00.129Z,7
2022-12-05T16:13:26.798Z,6.9
2022-12-05T16:15:53.543Z,6.9
2022-12-05T16:18:20.175Z,6.9
2022-12-05T16:20:46.878Z,6.8
2022-12-05T16:23:13.551Z,6.8
2022-12-05T16:25:40.250Z,6.8
2022-12-05T16:28:06.946Z,6.8
2022-12-05T16:30:33.645Z,6.8
2022-12-05T16:33:00.280Z,6.7
2022-12-05T16:35:26.967Z,6.7
2022-12-05T16:37:53.660Z,6.7
2022-12-05T16:40:18.887Z,6.7
2022-12-05T16:42:45.583Z,6.6
2022-12-05T16:45:12.238Z,6.6
2022-12-05T16:47:38.939Z,6.6
2022-12-05T16:50:05.629Z,6.6
2022-12-05T16:52:32.303Z,6.6
2022-12-05T16:54:58.986Z,6.6
2022-12-05T16:57:25.673Z,6.5
2022-12-05T16:59:52.406Z,6.5
2022-12-05T17:02:19.076Z,6.5
2022-12-05T17:04:45.729Z,6.5
2022-12-05T17:07:12.410Z,6.4
2022-12-05T17:09:39.119Z,6.4
2022-12-05T17:12:05.781Z,6.4
2022-12-05T17:14:31.063Z,6.4
2022-12-05T17:16:57.723Z,6.4
2022-12-05T17:19:24.363Z,6.3
2022-12-05T17:24:17.728Z,6.3
2022-12-05T17:26:44.420Z,6.2
2022-12-05T17:29:11.158Z,6.1
2022-12-05T17:34:04.478Z,6
2022-12-05T17:36:31.162Z,6
2022-12-05T17:38:58.052Z,5.9
2022-12-05T17:41:24.538Z,5.9
2022-12-05T17:43:51.212Z,5.9
2022-12-05T17:48:43.287Z,5.9
2022-12-05T17:51:09.972Z,5.8
2022-12-05T17:53:35.080Z,5.8
2022-12-05T17:56:01.917Z,5.7
2022-12-05T17:58:27.077Z,5.7
2022-12-05T18:03:20.705Z,5.6
2022-12-05T18:05:47.110Z,5.6
2022-12-05T18:08:13.813Z,5.6
2022-12-05T18:10:40.533Z,5.6
2022-12-05T18:13:07.206Z,5.6
2022-12-05T18:15:33.932Z,5.6
2022-12-05T18:18:00.592Z,5.6
2022-12-05T18:20:27.289Z,5.5
2022-12-05T18:22:53.999Z,5.5
2022-12-05T18:25:20.661Z,5.5
2022-12-05T18:27:47.369Z,5.5
2022-12-05T18:30:12.551Z,5.5
2022-12-05T18:32:39.250Z,5.5
2022-12-05T18:35:05.939Z,5.5
2022-12-05T18:37:32.453Z,5.5
2022-12-05T18:39:59.164Z,5.5
2022-12-05T18:42:25.905Z,5.5
2022-12-05T18:44:52.554Z,5.5
2022-12-05T18:47:17.972Z,5.5
2022-12-05T18:49:42.995Z,5.5
2022-12-05T18:52:09.829Z,5.5
2022-12-05T18:54:36.501Z,5.5
2022-12-05T18:57:03.160Z,5.5
2022-12-05T18:59:29.740Z,5.5
2022-12-05T19:01:56.594Z,5.5
2022-12-05T19:04:23.238Z,5.5
2022-12-05T19:06:49.779Z,5.5
2022-12-05T19:09:16.478Z,5.4
2022-12-05T19:11:43.167Z,5.4
2022-12-05T19:14:09.846Z,5.3
2022-12-05T19:19:03.216Z,5.3
2022-12-05T19:21:28.567Z,5.3
2022-12-05T19:23:55.125Z,5.3
2022-12-05T19:26:21.801Z,5.3
2022-12-05T19:28:48.480Z,5.3
2022-12-05T19:31:15.159Z,5.3
2022-12-05T19:33:41.871Z,5.3
2022-12-05T19:36:08.545Z,5.2
2022-12-05T19:38:35.230Z,5.2
2022-12-05T19:41:01.925Z,5.1
2022-12-05T19:43:28.588Z,5.1
2022-12-05T19:45:55.280Z,5.1
2022-12-05T19:48:21.969Z,5.1
2022-12-05T19:50:48.652Z,5.1
2022-12-05T19:53:15.328Z,5.1
2022-12-05T19:55:40.557Z,5.1
2022-12-05T19:58:07.254Z,5.1
2022-12-05T20:00:33.917Z,5.1
2022-12-05T20:03:00.613Z,5.1
2022-12-05T20:07:53.989Z,5.1
2022-12-05T20:10:20.666Z,5.2
2022-12-05T20:12:47.360Z,5.1
2022-12-05T20:15:14.045Z,5.1
2022-12-05T20:17:40.714Z,5.1
2022-12-05T20:20:07.409Z,5.2
2022-12-05T20:22:34.094Z,5.2
2022-12-05T20:25:00.815Z,5.2
2022-12-05T20:27:25.992Z,5.2
2022-12-05T20:29:52.687Z,5.2
2022-12-05T20:32:19.377Z,5.1
2022-12-05T20:34:46.057Z,5.1
2022-12-05T20:37:12.749Z,5.1
2022-12-05T20:39:39.433Z,5.1
2022-12-05T20:42:06.112Z,5.1
2022-12-05T20:44:32.791Z,5.1
2022-12-05T20:46:59.487Z,5.1
2022-12-05T20:49:26.162Z,5.1
2022-12-05T20:51:52.854Z,5.1
2022-12-05T20:54:19.555Z,5.2
2022-12-05T20:56:46.214Z,5.2
2022-12-05T20:59:12.935Z,5.2
2022-12-05T21:01:39.679Z,5.2
2022-12-05T21:04:04.837Z,5.2
2022-12-05T21:06:31.498Z,5.2
2022-12-05T21:08:58.194Z,5.2
2022-12-05T21:11:24.879Z,5.2
2022-12-05T21:13:51.553Z,5.2
2022-12-05T21:16:18.242Z,5.2
2022-12-05T21:18:44.937Z,5.2
2022-12-05T21:21:11.605Z,5.2
2022-12-05T21:23:38.295Z,5.2
2022-12-05T21:26:04.989Z,5.2
2022-12-05T21:28:31.663Z,5.2
2022-12-05T21:30:58.353Z,5.2
2022-12-05T21:33:25.037Z,5.2
2022-12-05T21:35:50.254Z,5.2
2022-12-05T21:38:16.939Z,5.2
2022-12-05T21:40:43.624Z,5.2
2022-12-05T21:43:10.320Z,5.2
2022-12-05T21:45:37.003Z,5.2
2022-12-05T21:48:03.689Z,5.2
2022-12-05T21:50:30.378Z,5.2
2022-12-05T21:52:57.063Z,5.2
2022-12-05T21:55:23.744Z,5.2
2022-12-05T21:57:50.416Z,5.2
2022-12-05T22:00:17.117Z,5.2
2022-12-05T22:02:43.786Z,5.1
2022-12-05T22:05:10.486Z,5.1
2022-12-05T22:07:35.754Z,5.1
2022-12-05T22:10:02.380Z,5.1
2022-12-05T22:12:29.071Z,5.1
2022-12-05T22:14:55.774Z,5.1
2022-12-05T22:17:22.457Z,5.1
2022-12-05T22:19:49.136Z,5.1
2022-12-05T22:22:15.808Z,5.1
2022-12-05T22:24:42.496Z,5.1
2022-12-05T22:27:09.191Z,5.2
2022-12-05T22:29:35.860Z,5.1
2022-12-05T22:32:02.552Z,5.1
2022-12-05T22:34:29.244Z,5.1
2022-12-05T22:36:55.925Z,5.1
2022-12-05T22:39:22.615Z,5.1
2022-12-05T22:41:47.832Z,5.1
2022-12-05T22:44:14.527Z,5.1
2022-12-05T22:46:41.205Z,5.1
2022-12-05T22:49:07.883Z,5.1
2022-12-05T22:51:34.582Z,5.1
2022-12-05T22:54:01.259Z,5.1
2022-12-05T22:56:28.429Z,5.1
2022-12-05T22:58:54.630Z,5.1
2022-12-05T23:01:21.319Z,5.1
2022-12-05T23:03:48.004Z,5.1
2022-12-05T23:06:14.751Z,5.1
2022-12-05T23:08:41.370Z,5.1
2022-12-05T23:11:08.094Z,5.1
2022-12-05T23:13:33.268Z,5.1
2022-12-05T23:15:59.959Z,5.1
2022-12-05T23:18:26.664Z,5.1
2022-12-05T23:20:53.534Z,5.1
2022-12-05T23:23:20.019Z,5
2022-12-05T23:25:46.707Z,5.1
2022-12-05T23:30:40.088Z,5
2022-12-05T23:33:06.766Z,5
2022-12-05T23:35:33.453Z,5
2022-12-05T23:38:00.132Z,5
2022-12-05T23:40:26.816Z,5
2022-12-05T23:42:53.497Z,5
2022-12-05T23:45:20.187Z,5
2022-12-05T23:47:46.879Z,5
2022-12-05T23:50:12.111Z,5
2022-12-05T23:52:38.787Z,5
2022-12-05T23:55:05.477Z,5
2022-12-05T23:57:32.170Z,5
2022-12-05T23:59:58.854Z,4.9
